createdAt,value
2022-11-24T00:01:33.498Z,-0.90
2022-11-24T00:04:04.467Z,-0.90
2022-11-24T00:06:34.642Z,-0.90
2022-11-24T00:09:05.277Z,-0.90
2022-11-24T00:11:36.079Z,-1.00
2022-11-24T00:14:05.810Z,-0.90
2022-11-24T00:16:38.033Z,-0.90
2022-11-24T00:19:14.713Z,-0.90
2022-11-24T00:21:47.840Z,-0.80
2022-11-24T00:24:16.413Z,-0.80
2022-11-24T00:26:44.609Z,-0.80
2022-11-24T00:29:12.986Z,-0.90
2022-11-24T00:31:42.657Z,-0.90
2022-11-24T00:34:15.557Z,-0.90
2022-11-24T00:36:44.604Z,-0.90
2022-11-24T00:39:17.017Z,-0.90
2022-11-24T00:41:45.209Z,-0.90
2022-11-24T00:44:15.596Z,-0.90
2022-11-24T00:46:43.804Z,-0.90
2022-11-24T00:49:15.686Z,-0.90
2022-11-24T00:51:44.035Z,-0.90
2022-11-24T00:54:14.189Z,-0.90
2022-11-24T00:56:45.092Z,-0.90
2022-11-24T00:59:13.456Z,-0.90
2022-11-24T01:01:44.429Z,-0.90
2022-11-24T01:04:12.976Z,-0.90
2022-11-24T01:06:46.347Z,-0.90
2022-11-24T01:09:14.674Z,-0.90
2022-11-24T01:12:01.099Z,-0.90
2022-11-24T01:14:30.315Z,-0.90
2022-11-24T01:17:02.543Z,-0.90
2022-11-24T01:19:32.517Z,-0.90
2022-11-24T01:22:04.899Z,-0.90
2022-11-24T01:24:36.121Z,-0.90
2022-11-24T01:27:04.308Z,-0.90
2022-11-24T01:29:32.566Z,-0.90
2022-11-24T01:32:00.764Z,-0.90
2022-11-24T01:34:29.168Z,-0.90
2022-11-24T01:36:57.156Z,-1.00
2022-11-24T01:39:26.443Z,-1.00
2022-11-24T01:41:56.549Z,-0.90
2022-11-24T01:44:36.013Z,-0.90
2022-11-24T01:47:37.342Z,-0.90
2022-11-24T01:50:07.241Z,-0.90
2022-11-24T01:52:43.685Z,-0.90
2022-11-24T01:55:18.555Z,-0.90
2022-11-24T01:58:11.210Z,-0.90
2022-11-24T02:00:43.534Z,-1.00
2022-11-24T02:03:16.162Z,-1.00
2022-11-24T02:05:52.181Z,-1.00
2022-11-24T02:08:45.355Z,-0.90
2022-11-24T02:11:14.171Z,-1.00
2022-11-24T02:13:44.391Z,-0.90
2022-11-24T02:16:13.586Z,-0.90
2022-11-24T02:18:43.849Z,-1.00
2022-11-24T02:21:15.130Z,-0.90
2022-11-24T02:23:49.000Z,-0.90
2022-11-24T02:26:35.727Z,-0.90
2022-11-24T02:29:05.517Z,-1.00
2022-11-24T02:31:34.232Z,-1.00
2022-11-24T02:34:02.276Z,-1.00
2022-11-24T02:36:30.657Z,-1.00
2022-11-24T02:38:58.518Z,-0.90
2022-11-24T02:41:28.164Z,-0.90
2022-11-24T02:43:58.838Z,-0.90
2022-11-24T02:46:27.270Z,-0.90
2022-11-24T02:48:55.296Z,-0.90
2022-11-24T02:51:23.626Z,-0.90
2022-11-24T02:53:51.479Z,-0.90
2022-11-24T02:56:19.833Z,-0.90
2022-11-24T02:58:47.732Z,-0.90
2022-11-24T03:01:16.197Z,-0.90
2022-11-24T03:03:44.394Z,-0.90
2022-11-24T03:06:14.405Z,-0.90
2022-11-24T03:08:42.332Z,-0.90
2022-11-24T03:11:10.792Z,-0.90
2022-11-24T03:13:39.012Z,-1.00
2022-11-24T03:16:10.254Z,-0.90
2022-11-24T03:18:38.352Z,-1.00
2022-11-24T03:21:09.684Z,-1.00
2022-11-24T03:23:37.543Z,-0.90
2022-11-24T03:26:14.895Z,-0.90
2022-11-24T03:28:42.939Z,-1.00
2022-11-24T03:31:11.992Z,-1.00
2022-11-24T03:33:40.449Z,-1.00
2022-11-24T03:36:09.324Z,-0.90
2022-11-24T03:38:40.361Z,-0.90
2022-11-24T03:41:08.727Z,-0.90
2022-11-24T03:43:41.965Z,-1.00
2022-11-24T03:46:12.999Z,-1.00
2022-11-24T03:48:44.475Z,-1.00
2022-11-24T03:51:13.027Z,-1.00
2022-11-24T03:53:43.502Z,-0.90
2022-11-24T03:56:11.803Z,-1.00
2022-11-24T03:58:39.899Z,-1.00
2022-11-24T04:01:08.238Z,-1.00
2022-11-24T04:03:36.194Z,-1.00
2022-11-24T04:06:04.597Z,-1.00
2022-11-24T04:08:34.906Z,-1.00
2022-11-24T04:11:03.915Z,-1.00
2022-11-24T04:13:31.951Z,-1.00
2022-11-24T04:16:05.390Z,-1.00
2022-11-24T04:18:33.320Z,-1.00
2022-11-24T04:21:01.618Z,-1.00
2022-11-24T04:23:31.819Z,-1.10
2022-11-24T04:26:00.086Z,-1.10
2022-11-24T04:28:28.026Z,-1.10
2022-11-24T04:30:56.316Z,-1.10
2022-11-24T04:33:24.428Z,-1.10
2022-11-24T04:35:55.791Z,-1.10
2022-11-24T04:39:25.523Z,-1.10
2022-11-24T04:41:12.220Z,-1.10
2022-11-24T04:43:40.911Z,-1.10
2022-11-24T04:46:12.024Z,-1.10
2022-11-24T04:48:42.703Z,-1.10
2022-11-24T04:51:11.003Z,-1.10
2022-11-24T04:53:38.929Z,-1.10
2022-11-24T04:56:07.869Z,-1.10
2022-11-24T04:58:36.289Z,-1.10
2022-11-24T05:01:08.585Z,-1.10
2022-11-24T05:03:37.560Z,-1.10
2022-11-24T05:06:06.709Z,-1.10
2022-11-24T05:08:35.017Z,-1.10
2022-11-24T05:11:08.473Z,-1.10
2022-11-24T05:13:36.397Z,-1.00
2022-11-24T05:16:05.050Z,-1.10
2022-11-24T05:18:35.373Z,-1.10
2022-11-24T05:21:04.184Z,-1.00
2022-11-24T05:23:32.132Z,-1.00
2022-11-24T05:26:02.151Z,-1.00
2022-11-24T05:28:30.322Z,-0.90
2022-11-24T05:31:05.342Z,-0.90
2022-11-24T05:33:33.759Z,-1.00
2022-11-24T05:36:03.758Z,-0.90
2022-11-24T05:38:32.964Z,-1.00
2022-11-24T05:41:05.721Z,-0.90
2022-11-24T05:43:35.350Z,-1.00
2022-11-24T05:46:03.605Z,-1.00
2022-11-24T05:48:31.457Z,-1.00
2022-11-24T05:50:59.721Z,-1.00
2022-11-24T05:53:30.276Z,-1.00
2022-11-24T05:55:58.321Z,-1.00
2022-11-24T05:58:26.101Z,-1.00
2022-11-24T06:00:54.115Z,-0.90
2022-11-24T06:03:21.699Z,-1.00
2022-11-24T06:05:49.885Z,-1.00
2022-11-24T06:08:17.690Z,-1.00
2022-11-24T06:10:54.379Z,-1.00
2022-11-24T06:13:22.094Z,-0.90
2022-11-24T06:15:50.361Z,-1.00
2022-11-24T06:18:18.226Z,-1.10
2022-11-24T06:21:09.278Z,-1.00
2022-11-24T06:23:34.212Z,-1.00
2022-11-24T06:26:05.495Z,-1.00
2022-11-24T06:28:33.360Z,-1.10
2022-11-24T06:31:03.491Z,-1.10
2022-11-24T06:33:35.754Z,-1.20
2022-11-24T06:36:10.172Z,-1.20
2022-11-24T06:38:39.617Z,-1.20
2022-11-24T06:41:11.744Z,-1.10
2022-11-24T06:43:43.017Z,-1.10
2022-11-24T06:46:12.085Z,-1.20
2022-11-24T06:48:42.771Z,-1.20
2022-11-24T06:51:15.719Z,-1.20
2022-11-24T06:53:44.298Z,-1.30
2022-11-24T06:56:18.386Z,-1.20
2022-11-24T06:58:48.280Z,-1.20
2022-11-24T07:01:21.671Z,-1.30
2022-11-24T07:03:50.157Z,-1.30
2022-11-24T07:06:19.993Z,-1.30
2022-11-24T07:08:48.800Z,-1.20
2022-11-24T07:11:19.453Z,-1.20
2022-11-24T07:13:47.968Z,-1.20
2022-11-24T07:16:22.965Z,-1.20
2022-11-24T07:18:54.969Z,-1.20
2022-11-24T07:21:24.248Z,-1.20
2022-11-24T07:23:56.176Z,-1.20
2022-11-24T07:26:25.272Z,-1.20
2022-11-24T07:29:11.935Z,-1.10
2022-11-24T07:36:45.382Z,-1.10
2022-11-24T07:40:03.036Z,-1.10
2022-11-24T07:43:45.036Z,-1.10
2022-11-24T07:47:52.491Z,-1.00
2022-11-24T08:02:07.418Z,-1.00
2022-11-24T08:05:27.767Z,-1.10
2022-11-24T08:08:47.024Z,-1.00
2022-11-24T08:12:46.178Z,-1.00
2022-11-24T08:15:31.232Z,-1.00
2022-11-24T08:22:16.003Z,-1.00
2022-11-24T08:25:45.035Z,-1.00
2022-11-24T08:28:53.101Z,-0.90
2022-11-24T08:31:48.876Z,-1.00
2022-11-24T08:34:16.999Z,-1.00
2022-11-24T08:36:44.822Z,-1.00
2022-11-24T08:39:13.045Z,-1.00
2022-11-24T08:41:40.808Z,-1.00
2022-11-24T08:44:10.804Z,-1.00
2022-11-24T08:46:38.579Z,-0.90
2022-11-24T08:49:07.419Z,-1.00
2022-11-24T08:51:35.191Z,-0.90
2022-11-24T08:54:03.691Z,-0.90
2022-11-24T08:56:33.279Z,-0.90
2022-11-24T08:59:01.489Z,-0.80
2022-11-24T09:01:29.667Z,-0.70
2022-11-24T09:03:58.046Z,-0.80
2022-11-24T09:06:30.358Z,-0.70
2022-11-24T09:09:00.102Z,-0.70
2022-11-24T09:11:28.541Z,-0.80
2022-11-24T09:13:56.733Z,-0.70
2022-11-24T09:16:27.064Z,-0.70
2022-11-24T09:19:01.975Z,-0.70
2022-11-24T09:21:31.715Z,-0.70
2022-11-24T09:24:00.351Z,-0.70
2022-11-24T09:26:31.188Z,-0.70
2022-11-24T09:29:00.959Z,-0.70
2022-11-24T09:31:35.623Z,-0.60
2022-11-24T09:34:06.127Z,-0.60
2022-11-24T09:36:34.433Z,-0.50
2022-11-24T09:39:05.323Z,-0.50
2022-11-24T09:41:51.354Z,-0.50
2022-11-24T09:44:52.706Z,-0.50
2022-11-24T09:47:41.415Z,-0.50
2022-11-24T09:50:19.003Z,-0.50
2022-11-24T09:53:08.085Z,-0.40
2022-11-24T09:55:51.730Z,-0.40
2022-11-24T09:58:51.409Z,-0.40
2022-11-24T10:01:23.426Z,-0.30
2022-11-24T10:03:53.237Z,-0.30
2022-11-24T10:06:44.575Z,-0.30
2022-11-24T10:09:29.531Z,-0.30
2022-11-24T10:12:19.170Z,-0.20
2022-11-24T10:14:56.825Z,-0.10
2022-11-24T10:17:46.826Z,-0.10
2022-11-24T10:20:45.428Z,0.00
2022-11-24T10:23:41.099Z,0.00
2022-11-24T10:26:36.378Z,0.00
2022-11-24T10:29:24.069Z,0.00
2022-11-24T10:31:55.551Z,0.00
2022-11-24T10:34:27.556Z,0.00
2022-11-24T10:37:17.245Z,0.00
2022-11-24T10:43:12.477Z,0.00
2022-11-24T10:45:41.429Z,0.00
2022-11-24T10:48:40.837Z,0.00
2022-11-24T10:51:50.751Z,0.00
2022-11-24T10:54:26.759Z,0.10
2022-11-24T10:56:56.190Z,0.10
2022-11-24T10:59:34.909Z,0.10
2022-11-24T11:02:31.135Z,0.10
2022-11-24T11:05:24.120Z,0.00
2022-11-24T11:08:21.441Z,0.00
2022-11-24T11:11:20.434Z,0.10
2022-11-24T11:14:03.522Z,0.00
2022-11-24T11:16:43.093Z,0.00
2022-11-24T11:19:55.488Z,0.10
2022-11-24T11:22:37.387Z,0.10
2022-11-24T11:25:10.673Z,0.00
2022-11-24T11:27:39.968Z,0.10
2022-11-24T11:36:15.355Z,0.20
2022-11-24T11:38:44.153Z,0.20
2022-11-24T11:41:22.422Z,0.20
2022-11-24T11:44:01.046Z,0.20
2022-11-24T11:46:31.380Z,0.20
2022-11-24T11:48:59.247Z,0.30
2022-11-24T11:55:05.594Z,0.30
2022-11-24T11:57:54.356Z,0.30
2022-11-24T12:00:25.529Z,0.30
2022-11-24T12:03:24.075Z,0.20
2022-11-24T12:06:27.854Z,0.20
2022-11-24T12:12:14.858Z,0.20
2022-11-24T12:14:51.187Z,0.20
2022-11-24T12:17:49.769Z,0.20
2022-11-24T12:20:29.810Z,0.20
2022-11-24T12:23:11.484Z,0.20
2022-11-24T12:26:01.634Z,0.30
2022-11-24T12:28:47.020Z,0.30
2022-11-24T12:31:17.778Z,0.30
2022-11-24T12:34:02.959Z,0.40
2022-11-24T12:37:09.262Z,0.40
2022-11-24T12:39:55.349Z,0.40
2022-11-24T12:42:54.477Z,0.40
2022-11-24T12:45:45.152Z,0.40
2022-11-24T12:48:31.923Z,0.40
2022-11-24T12:51:00.516Z,0.40
2022-11-24T12:53:34.997Z,0.40
2022-11-24T12:56:11.362Z,0.40
2022-11-24T12:58:45.987Z,0.40
2022-11-24T13:01:38.739Z,0.40
2022-11-24T13:04:28.588Z,0.40
2022-11-24T13:07:05.905Z,0.40
2022-11-24T13:09:33.901Z,0.40
2022-11-24T13:12:18.117Z,0.40
2022-11-24T13:14:48.828Z,0.40
2022-11-24T13:17:42.035Z,0.40
2022-11-24T13:20:21.399Z,0.30
2022-11-24T13:22:53.728Z,0.30
2022-11-24T13:25:47.597Z,0.30
2022-11-24T13:29:05.833Z,0.30
2022-11-24T13:31:41.334Z,0.30
2022-11-24T13:34:42.979Z,0.30
2022-11-24T13:37:40.494Z,0.20
2022-11-24T13:40:14.313Z,0.30
2022-11-24T13:42:58.954Z,0.20
2022-11-24T13:45:41.969Z,0.30
2022-11-24T13:48:22.805Z,0.30
2022-11-24T13:50:50.903Z,0.30
2022-11-24T13:53:40.616Z,0.30
2022-11-24T13:56:28.706Z,0.30
2022-11-24T13:59:05.189Z,0.30
2022-11-24T14:01:37.053Z,0.20
2022-11-24T14:04:36.018Z,0.30
2022-11-24T14:07:11.771Z,0.30
2022-11-24T14:09:48.549Z,0.30
2022-11-24T14:12:23.110Z,0.30
2022-11-24T14:14:57.841Z,0.30
2022-11-24T14:17:28.850Z,0.30
2022-11-24T14:19:59.794Z,0.30
2022-11-24T14:22:41.552Z,0.30
2022-11-24T14:25:31.666Z,0.30
2022-11-24T14:28:02.422Z,0.20
2022-11-24T14:30:31.938Z,0.20
2022-11-24T14:33:04.097Z,0.30
2022-11-24T14:35:36.632Z,0.20
2022-11-24T14:38:06.133Z,0.20
2022-11-24T14:40:46.975Z,0.30
2022-11-24T14:43:32.062Z,0.30
2022-11-24T14:46:03.718Z,0.30
2022-11-24T14:48:36.938Z,0.30
2022-11-24T14:51:20.608Z,0.30
2022-11-24T14:53:52.476Z,0.30
2022-11-24T14:56:38.196Z,0.30
2022-11-24T14:59:22.601Z,0.30
2022-11-24T15:01:51.288Z,0.30
2022-11-24T15:07:27.453Z,0.30
2022-11-24T15:10:03.017Z,0.20
2022-11-24T15:12:41.286Z,0.30
2022-11-24T15:15:16.361Z,0.20
2022-11-24T15:17:50.578Z,0.20
2022-11-24T15:20:30.520Z,0.20
2022-11-24T15:23:22.525Z,0.20
2022-11-24T15:26:02.777Z,0.20
2022-11-24T15:28:31.848Z,0.20
2022-11-24T15:31:03.043Z,0.20
2022-11-24T15:33:31.676Z,0.20
2022-11-24T15:36:00.315Z,0.20
2022-11-24T15:38:28.568Z,0.30
2022-11-24T15:40:59.427Z,0.30
2022-11-24T15:43:42.589Z,0.30
2022-11-24T15:46:10.732Z,0.30
2022-11-24T15:48:38.581Z,0.30
2022-11-24T15:51:10.437Z,0.40
2022-11-24T15:53:45.266Z,0.30
2022-11-24T15:56:28.524Z,0.30
2022-11-24T15:58:56.210Z,0.40
2022-11-24T16:01:29.077Z,0.30
2022-11-24T16:03:56.838Z,0.30
2022-11-24T16:06:27.314Z,0.40
2022-11-24T16:08:55.174Z,0.40
2022-11-24T16:11:23.708Z,0.40
2022-11-24T16:13:53.734Z,0.40
2022-11-24T16:16:25.483Z,0.40
2022-11-24T16:18:53.657Z,0.40
2022-11-24T16:21:22.077Z,0.30
2022-11-24T16:23:50.313Z,0.40
2022-11-24T16:26:18.432Z,0.40
2022-11-24T16:28:46.067Z,0.40
2022-11-24T16:31:16.414Z,0.40
2022-11-24T16:33:47.825Z,0.40
2022-11-24T16:36:24.252Z,0.40
2022-11-24T16:38:53.192Z,0.40
2022-11-24T16:41:22.016Z,0.40
2022-11-24T16:43:49.753Z,0.40
2022-11-24T16:46:21.456Z,0.40
2022-11-24T16:48:52.237Z,0.40
2022-11-24T16:51:25.591Z,0.40
2022-11-24T16:54:04.126Z,0.40
2022-11-24T16:57:01.831Z,0.40
2022-11-24T16:59:41.222Z,0.40
2022-11-24T17:02:13.483Z,0.40
2022-11-24T17:04:44.214Z,0.40
2022-11-24T17:07:18.645Z,0.40
2022-11-24T17:09:49.134Z,0.40
2022-11-24T17:12:24.414Z,0.40
2022-11-24T17:15:16.487Z,0.30
2022-11-24T17:18:01.194Z,0.40
2022-11-24T17:20:31.538Z,0.40
2022-11-24T17:22:59.665Z,0.30
2022-11-24T17:29:57.309Z,0.30
2022-11-24T17:32:26.122Z,0.10
2022-11-24T17:35:17.936Z,0.10
2022-11-24T17:37:50.159Z,0.10
2022-11-24T17:40:30.552Z,0.10
2022-11-24T17:44:12.198Z,0.10
2022-11-24T17:51:42.694Z,0.20
2022-11-24T17:54:50.150Z,0.20
2022-11-24T17:58:10.624Z,0.20
2022-11-24T18:00:46.198Z,0.20
2022-11-24T18:03:25.246Z,0.20
2022-11-24T18:06:08.040Z,0.10
2022-11-24T18:08:45.050Z,0.10
2022-11-24T18:11:39.514Z,0.10
2022-11-24T18:14:26.025Z,0.10
2022-11-24T18:17:14.225Z,0.10
2022-11-24T18:19:54.793Z,0.00
2022-11-24T18:23:03.878Z,0.00
2022-11-24T18:25:38.103Z,0.00
2022-11-24T18:28:20.031Z,0.00
2022-11-24T18:31:13.788Z,0.00
2022-11-24T18:33:48.828Z,-0.10
2022-11-24T18:36:29.721Z,-0.10
2022-11-24T18:39:07.192Z,-0.10
2022-11-24T18:41:41.272Z,-0.10
2022-11-24T18:44:26.928Z,-0.20
2022-11-24T18:47:07.569Z,-0.20
2022-11-24T18:49:43.870Z,-0.20
2022-11-24T18:52:22.575Z,-0.10
2022-11-24T18:54:57.346Z,-0.10
2022-11-24T18:57:42.918Z,-0.10
2022-11-24T19:00:22.028Z,-0.10
2022-11-24T19:02:59.628Z,0.00
2022-11-24T19:05:46.033Z,0.00
2022-11-24T19:08:30.065Z,0.00
2022-11-24T19:11:01.463Z,0.00
2022-11-24T19:13:54.531Z,0.00
2022-11-24T19:16:35.115Z,0.00
2022-11-24T19:19:15.017Z,0.10
2022-11-24T19:22:07.787Z,0.00
2022-11-24T19:24:39.838Z,0.00
2022-11-24T19:27:28.783Z,0.00
2022-11-24T19:31:08.179Z,0.00
2022-11-24T19:33:59.099Z,0.00
2022-11-24T19:37:00.373Z,0.00
2022-11-24T19:40:00.274Z,0.00
2022-11-24T19:42:58.078Z,0.00
2022-11-24T19:45:49.043Z,0.00
2022-11-24T19:48:53.510Z,0.00
2022-11-24T19:51:38.246Z,0.00
2022-11-24T19:54:26.240Z,0.00
2022-11-24T19:57:03.754Z,0.00
2022-11-24T20:00:01.221Z,0.00
2022-11-24T20:02:45.874Z,0.00
2022-11-24T20:05:41.338Z,0.00
2022-11-24T20:08:40.878Z,0.00
2022-11-24T20:11:23.489Z,0.00
2022-11-24T20:14:00.225Z,0.00
2022-11-24T20:16:36.458Z,0.00
2022-11-24T20:19:15.637Z,0.00
2022-11-24T20:21:49.738Z,0.00
2022-11-24T20:24:25.786Z,-0.10
2022-11-24T20:27:01.198Z,-0.10
2022-11-24T20:29:35.241Z,-0.10
2022-11-24T20:32:05.881Z,-0.10
2022-11-24T20:34:35.144Z,0.00
2022-11-24T20:37:04.793Z,-0.10
2022-11-24T20:39:44.241Z,-0.10
2022-11-24T20:42:34.498Z,-0.10
2022-11-24T20:45:11.673Z,-0.10
2022-11-24T20:47:48.968Z,-0.10
2022-11-24T20:50:23.000Z,-0.10
2022-11-24T20:53:19.050Z,-0.10
2022-11-24T20:55:51.183Z,-0.10
2022-11-24T20:58:27.301Z,-0.20
2022-11-24T21:01:11.275Z,-0.10
2022-11-24T21:03:48.025Z,-0.10
2022-11-24T21:06:28.509Z,-0.20
2022-11-24T21:09:04.276Z,-0.10
2022-11-24T21:11:36.364Z,-0.10
2022-11-24T21:14:13.825Z,-0.10
2022-11-24T21:16:47.158Z,-0.10
2022-11-24T21:19:20.304Z,-0.10
2022-11-24T21:21:50.319Z,-0.10
2022-11-24T21:24:22.005Z,-0.10
2022-11-24T21:26:53.056Z,-0.10
2022-11-24T21:29:23.734Z,0.00
2022-11-24T21:31:52.621Z,0.00
2022-11-24T21:34:21.067Z,0.00
2022-11-24T21:36:49.583Z,0.00
2022-11-24T21:39:17.885Z,-0.10
2022-11-24T21:41:46.877Z,-0.10
2022-11-24T21:44:15.562Z,-0.10
2022-11-24T21:46:51.124Z,-0.10
2022-11-24T21:49:24.194Z,-0.10
2022-11-24T21:51:56.157Z,-0.20
2022-11-24T21:54:24.411Z,-0.20
2022-11-24T21:56:53.918Z,-0.20
2022-11-24T21:59:22.672Z,-0.20
2022-11-24T22:01:52.135Z,-0.20
2022-11-24T22:04:20.251Z,-0.20
2022-11-24T22:06:48.505Z,-0.20
2022-11-24T22:09:18.171Z,-0.20
2022-11-24T22:11:49.545Z,-0.10
2022-11-24T22:14:17.540Z,-0.10
2022-11-24T22:16:46.282Z,-0.10
2022-11-24T22:19:14.227Z,-0.10
2022-11-24T22:21:42.692Z,-0.10
2022-11-24T22:24:10.918Z,-0.10
2022-11-24T22:26:39.173Z,-0.10
2022-11-24T22:29:19.163Z,-0.10
2022-11-24T22:31:47.521Z,-0.10
2022-11-24T22:34:15.503Z,-0.10
2022-11-24T22:36:43.772Z,-0.10
2022-11-24T22:39:12.458Z,-0.10
2022-11-24T22:41:40.706Z,-0.20
2022-11-24T22:44:08.630Z,-0.20
2022-11-24T22:46:36.851Z,-0.10
2022-11-24T22:49:04.866Z,-0.10
2022-11-24T22:51:35.056Z,-0.10
2022-11-24T22:54:05.079Z,-0.10
2022-11-24T22:56:34.000Z,-0.10
2022-11-24T22:59:02.877Z,-0.10
2022-11-24T23:01:33.922Z,-0.10
2022-11-24T23:04:02.709Z,-0.10
2022-11-24T23:06:32.238Z,-0.20
2022-11-24T23:09:02.113Z,-0.20
2022-11-24T23:11:37.936Z,-0.20
2022-11-24T23:14:08.914Z,-0.30
2022-11-24T23:16:37.481Z,-0.30
2022-11-24T23:19:06.205Z,-0.30
2022-11-24T23:21:38.541Z,-0.30
2022-11-24T23:24:08.305Z,-0.40
2022-11-24T23:26:39.532Z,-0.30
2022-11-24T23:29:08.080Z,-0.40
2022-11-24T23:31:40.188Z,-0.40
2022-11-24T23:34:08.765Z,-0.40
2022-11-24T23:36:37.067Z,-0.40
2022-11-24T23:39:07.453Z,-0.40
2022-11-24T23:41:36.169Z,-0.40
2022-11-24T23:44:04.745Z,-0.40
2022-11-24T23:46:33.451Z,-0.30
2022-11-24T23:49:01.399Z,-0.30
2022-11-24T23:51:32.413Z,-0.30
2022-11-24T23:56:43.186Z,-0.20
2022-11-24T23:59:12.390Z,-0.20
